KFR22 NZNV-NZAA
Flight info
| Callsign | KFR22 |
|---|---|
| Flight time | N/A |
| Altitude | 39000 |
| Route | ANOPA Q787 QN Y569 LOVTA Y655 POKOM Q277 DAVEE |
| Aircraft | A20N/M-SDE2E3FGHIRWXY/LB1 |
Departure
| Time | 2026-05-04 19:59 |
|---|---|
| Airport | Invercargill Airport (NZNV) |
Arrival
| Time | N/A |
|---|---|
| Airport | Auckland International Airport (NZAA) |
| Time | Latitude | Longitude | Altitude | Speed | Heading |
|---|---|---|---|---|---|
| 2026-05-04 19:38 | -46.41470 | 168.32394 | 12 ft | 0 kts | 185° |
| 2026-05-04 19:48 | -46.41469 | 168.32394 | 12 ft | 1 kts | 185° |
| 2026-05-04 19:48 | -46.41463 | 168.32394 | 9 ft | 1 kts | 221° |
| 2026-05-04 19:49 | -46.41458 | 168.32403 | 13 ft | 1 kts | 261° |
| 2026-05-04 19:49 | -46.41457 | 168.32405 | 13 ft | 0 kts | 270° |
| 2026-05-04 19:52 | -46.41457 | 168.32402 | 13 ft | 2 kts | 270° |
| 2026-05-04 19:52 | -46.41457 | 168.32350 | 9 ft | 8 kts | 270° |
| 2026-05-04 19:52 | -46.41457 | 168.32256 | 12 ft | 11 kts | 270° |
| 2026-05-04 19:53 | -46.41457 | 168.32136 | 11 ft | 13 kts | 270° |
| 2026-05-04 19:53 | -46.41395 | 168.32055 | 14 ft | 13 kts | 335° |
| 2026-05-04 19:53 | -46.41362 | 168.32033 | 12 ft | 0 kts | 334° |
| 2026-05-04 19:54 | -46.41361 | 168.32032 | 12 ft | 1 kts | 334° |
| 2026-05-04 19:54 | -46.41331 | 168.32011 | 11 ft | 7 kts | 334° |
| 2026-05-04 19:54 | -46.41292 | 168.31957 | 13 ft | 9 kts | 284° |
| 2026-05-04 19:54 | -46.41309 | 168.31863 | 13 ft | 11 kts | 246° |
| 2026-05-04 19:55 | -46.41345 | 168.31748 | 12 ft | 14 kts | 245° |
| 2026-05-04 19:55 | -46.41387 | 168.31616 | 13 ft | 15 kts | 245° |
| 2026-05-04 19:55 | -46.41437 | 168.31465 | 12 ft | 18 kts | 244° |
| 2026-05-04 19:55 | -46.41494 | 168.31291 | 12 ft | 20 kts | 244° |
| 2026-05-04 19:56 | -46.41554 | 168.31102 | 12 ft | 22 kts | 246° |
| 2026-05-04 19:56 | -46.41623 | 168.30893 | 11 ft | 24 kts | 244° |
| 2026-05-04 19:56 | -46.41698 | 168.30670 | 12 ft | 25 kts | 244° |
| 2026-05-04 19:56 | -46.41773 | 168.30437 | 12 ft | 26 kts | 245° |
| 2026-05-04 19:57 | -46.41845 | 168.30231 | 16 ft | 16 kts | 223° |
| 2026-05-04 19:57 | -46.41856 | 168.30206 | 16 ft | 1 kts | 294° |
| 2026-05-04 19:57 | -46.41849 | 168.30200 | 14 ft | 0 kts | 339° |
| 2026-05-04 19:57 | -46.41845 | 168.30201 | 14 ft | 1 kts | 0° |
| 2026-05-04 19:58 | -46.41842 | 168.30209 | 15 ft | 0 kts | 57° |
| 2026-05-04 19:58 | -46.41801 | 168.30331 | 12 ft | 44 kts | 63° |
| 2026-05-04 19:58 | -46.41552 | 168.31105 | 13 ft | 121 kts | 64° |
| 2026-05-04 19:58 | -46.41111 | 168.32472 | 49 ft | 174 kts | 64° |
| 2026-05-04 19:59 | -46.40758 | 168.33570 | 360 ft | 187 kts | 63° |
| 2026-05-04 19:59 | -46.40187 | 168.35340 | 1431 ft | 179 kts | 61° |
| 2026-05-04 19:59 | -46.39668 | 168.36950 | 2460 ft | 176 kts | 62° |
| 2026-05-04 19:59 | -46.39115 | 168.38616 | 2962 ft | 195 kts | 62° |
| 2026-05-04 20:00 | -46.38438 | 168.40415 | 3416 ft | 212 kts | 48° |
| 2026-05-04 20:00 | -46.37188 | 168.41641 | 3837 ft | 227 kts | 14° |
| 2026-05-04 20:00 | -46.35558 | 168.41778 | 4312 ft | 245 kts | 353° |
| 2026-05-04 20:00 | -46.33854 | 168.41514 | 5050 ft | 253 kts | 353° |
| 2026-05-04 20:01 | -46.32050 | 168.41441 | 6022 ft | 256 kts | 359° |
| 2026-05-04 20:01 | -46.30282 | 168.41629 | 6910 ft | 260 kts | 3° |
| 2026-05-04 20:01 | -46.28462 | 168.42004 | 7767 ft | 264 kts | 5° |
| 2026-05-04 20:01 | -46.26662 | 168.42464 | 8625 ft | 267 kts | 6° |
| 2026-05-04 20:02 | -46.24810 | 168.42972 | 9479 ft | 271 kts | 6° |
| 2026-05-04 20:02 | -46.22942 | 168.43488 | 10325 ft | 275 kts | 6° |
| 2026-05-04 20:02 | -46.21053 | 168.44002 | 10871 ft | 288 kts | 6° |
| 2026-05-04 20:02 | -46.18986 | 168.44486 | 11116 ft | 310 kts | 1° |
| 2026-05-04 20:03 | -46.16779 | 168.44569 | 11526 ft | 321 kts | 353° |
| 2026-05-04 20:03 | -46.14589 | 168.44181 | 12285 ft | 321 kts | 346° |
| 2026-05-04 20:03 | -46.12380 | 168.43562 | 13037 ft | 325 kts | 346° |
| 2026-05-04 20:03 | -46.10118 | 168.43059 | 13775 ft | 331 kts | 352° |
| 2026-05-04 20:04 | -46.07794 | 168.43070 | 14472 ft | 338 kts | 2° |
| 2026-05-04 20:04 | -46.05484 | 168.43637 | 15130 ft | 344 kts | 10° |
| 2026-05-04 20:04 | -46.03139 | 168.44467 | 15803 ft | 347 kts | 10° |
| 2026-05-04 20:04 | -46.00777 | 168.45287 | 16460 ft | 350 kts | 10° |
| 2026-05-04 20:05 | -45.98422 | 168.46095 | 17103 ft | 353 kts | 10° |
| 2026-05-04 20:05 | -45.96012 | 168.46917 | 17731 ft | 356 kts | 10° |
| 2026-05-04 20:05 | -45.93585 | 168.47742 | 18375 ft | 359 kts | 10° |
| 2026-05-04 20:05 | -45.91123 | 168.48578 | 18967 ft | 363 kts | 10° |
| 2026-05-04 20:06 | -45.88686 | 168.49403 | 19503 ft | 366 kts | 10° |
| 2026-05-04 20:06 | -45.86192 | 168.50247 | 20039 ft | 369 kts | 10° |
| 2026-05-04 20:06 | -45.83670 | 168.51102 | 20570 ft | 373 kts | 10° |
| 2026-05-04 20:06 | -45.81131 | 168.51963 | 21101 ft | 376 kts | 10° |
| 2026-05-04 20:07 | -45.78598 | 168.52821 | 21627 ft | 379 kts | 10° |
| 2026-05-04 20:07 | -45.76009 | 168.53698 | 22144 ft | 382 kts | 10° |
| 2026-05-04 20:07 | -45.73436 | 168.54568 | 22657 ft | 385 kts | 10° |
| 2026-05-04 20:07 | -45.70811 | 168.55455 | 23176 ft | 388 kts | 10° |
| 2026-05-04 20:08 | -45.68169 | 168.56347 | 23682 ft | 391 kts | 10° |
| 2026-05-04 20:08 | -45.65533 | 168.57235 | 24142 ft | 394 kts | 10° |
| 2026-05-04 20:08 | -45.62839 | 168.58142 | 24538 ft | 398 kts | 11° |
| 2026-05-04 20:08 | -45.60146 | 168.59048 | 24935 ft | 401 kts | 11° |
| 2026-05-04 20:09 | -45.57414 | 168.59965 | 25320 ft | 404 kts | 11° |
| 2026-05-04 20:09 | -45.54649 | 168.60893 | 25701 ft | 408 kts | 11° |
| 2026-05-04 20:09 | -45.51897 | 168.61817 | 26066 ft | 411 kts | 11° |
| 2026-05-04 20:09 | -45.49098 | 168.62754 | 26435 ft | 414 kts | 11° |
| 2026-05-04 20:10 | -45.46273 | 168.63700 | 26802 ft | 418 kts | 11° |
| 2026-05-04 20:10 | -45.43430 | 168.64627 | 27153 ft | 420 kts | 10° |
| 2026-05-04 20:10 | -45.40556 | 168.65506 | 27493 ft | 423 kts | 9° |
| 2026-05-04 20:10 | -45.37693 | 168.66365 | 27826 ft | 426 kts | 9° |
| 2026-05-04 20:11 | -45.34771 | 168.67243 | 28140 ft | 430 kts | 9° |
| 2026-05-04 20:11 | -45.31839 | 168.68130 | 28465 ft | 432 kts | 9° |
| 2026-05-04 20:11 | -45.28874 | 168.69031 | 28797 ft | 435 kts | 9° |
| 2026-05-04 20:11 | -45.25896 | 168.69937 | 29078 ft | 438 kts | 9° |
| 2026-05-04 20:12 | -45.22944 | 168.70835 | 29358 ft | 440 kts | 10° |
| 2026-05-04 20:12 | -45.19930 | 168.71751 | 29633 ft | 443 kts | 10° |
| 2026-05-04 20:12 | -45.16894 | 168.72673 | 29910 ft | 446 kts | 10° |
| 2026-05-04 20:12 | -45.13835 | 168.73601 | 30181 ft | 448 kts | 9° |
| 2026-05-04 20:13 | -45.10777 | 168.74527 | 30453 ft | 451 kts | 9° |
| 2026-05-04 20:13 | -45.08606 | 168.75184 | 30641 ft | 452 kts | 9° |
| 2026-05-04 20:13 | -45.05521 | 168.76117 | 30919 ft | 453 kts | 10° |
| 2026-05-04 20:13 | -45.02425 | 168.77052 | 31192 ft | 455 kts | 10° |
| 2026-05-04 20:14 | -44.99347 | 168.78229 | 31454 ft | 458 kts | 17° |
| 2026-05-04 20:14 | -44.96369 | 168.79896 | 31768 ft | 460 kts | 23° |
| 2026-05-04 20:14 | -44.93567 | 168.81969 | 32124 ft | 459 kts | 27° |
| 2026-05-04 20:14 | -44.90770 | 168.84160 | 32485 ft | 458 kts | 27° |
| 2026-05-04 20:15 | -44.87981 | 168.86333 | 32842 ft | 457 kts | 27° |
| 2026-05-04 20:15 | -44.85189 | 168.88499 | 33181 ft | 456 kts | 27° |
| 2026-05-04 20:15 | -44.82432 | 168.90629 | 33514 ft | 455 kts | 27° |
| 2026-05-04 20:15 | -44.79646 | 168.92778 | 33837 ft | 454 kts | 27° |
| 2026-05-04 20:16 | -44.76871 | 168.94914 | 34160 ft | 453 kts | 27° |
| 2026-05-04 20:16 | -44.74104 | 168.97043 | 34459 ft | 453 kts | 28° |
| 2026-05-04 20:16 | -44.71374 | 168.99141 | 34705 ft | 452 kts | 27° |
| 2026-05-04 20:16 | -44.68609 | 169.01264 | 34925 ft | 452 kts | 27° |
| 2026-05-04 20:17 | -44.65837 | 169.03389 | 35143 ft | 452 kts | 27° |
| 2026-05-04 20:17 | -44.63067 | 169.05512 | 35352 ft | 452 kts | 27° |
| 2026-05-04 20:17 | -44.60331 | 169.07605 | 35553 ft | 452 kts | 27° |
| 2026-05-04 20:17 | -44.57566 | 169.09719 | 35750 ft | 452 kts | 27° |
| 2026-05-04 20:18 | -44.54797 | 169.11834 | 35950 ft | 452 kts | 27° |
| 2026-05-04 20:18 | -44.52035 | 169.13941 | 36140 ft | 452 kts | 27° |
| 2026-05-04 20:18 | -44.49272 | 169.16046 | 36329 ft | 452 kts | 27° |
| 2026-05-04 20:18 | -44.46503 | 169.18153 | 36512 ft | 452 kts | 27° |
| 2026-05-04 20:19 | -44.43734 | 169.20258 | 36688 ft | 452 kts | 27° |
| 2026-05-04 20:19 | -44.40999 | 169.22336 | 36843 ft | 452 kts | 27° |
| 2026-05-04 20:19 | -44.38223 | 169.24443 | 37000 ft | 453 kts | 27° |
| 2026-05-04 20:19 | -44.35446 | 169.26547 | 37152 ft | 453 kts | 27° |
| 2026-05-04 20:20 | -44.32693 | 169.28631 | 37284 ft | 453 kts | 27° |
| 2026-05-04 20:20 | -44.29922 | 169.30726 | 37429 ft | 454 kts | 26° |
| 2026-05-04 20:20 | -44.27139 | 169.32830 | 37584 ft | 453 kts | 26° |
| 2026-05-04 20:20 | -44.24391 | 169.34903 | 37724 ft | 454 kts | 26° |
| 2026-05-04 20:21 | -44.21608 | 169.36999 | 37883 ft | 453 kts | 26° |
| 2026-05-04 20:21 | -44.18832 | 169.39088 | 38014 ft | 453 kts | 26° |
| 2026-05-04 20:21 | -44.13270 | 169.43269 | 38296 ft | 453 kts | 26° |
| 2026-05-04 20:22 | -44.10527 | 169.45328 | 38418 ft | 452 kts | 26° |
| 2026-05-04 20:22 | -44.07754 | 169.47406 | 38515 ft | 453 kts | 26° |
| 2026-05-04 20:22 | -44.02196 | 169.51565 | 38518 ft | 451 kts | 27° |
| 2026-05-04 20:23 | -43.96671 | 169.55692 | 38518 ft | 451 kts | 27° |
| 2026-05-04 20:23 | -43.91161 | 169.59799 | 38518 ft | 451 kts | 27° |
| 2026-05-04 20:24 | -43.85618 | 169.63921 | 38515 ft | 452 kts | 27° |
| 2026-05-04 20:24 | -43.80063 | 169.68044 | 38508 ft | 451 kts | 27° |
| 2026-05-04 20:25 | -43.74562 | 169.72117 | 38505 ft | 451 kts | 27° |
| 2026-05-04 20:25 | -43.69021 | 169.76213 | 38501 ft | 451 kts | 27° |
| 2026-05-04 20:26 | -43.63515 | 169.80272 | 38498 ft | 450 kts | 27° |
| 2026-05-04 20:26 | -43.57976 | 169.84348 | 38498 ft | 450 kts | 27° |
| 2026-05-04 20:27 | -43.52446 | 169.88409 | 38497 ft | 450 kts | 27° |
| 2026-05-04 20:27 | -43.47151 | 169.92914 | 38491 ft | 450 kts | 37° |
| 2026-05-04 20:28 | -43.42337 | 169.98463 | 38493 ft | 451 kts | 40° |
| 2026-05-04 20:28 | -43.37573 | 170.04044 | 38496 ft | 451 kts | 40° |
| 2026-05-04 20:29 | -43.33589 | 170.08686 | 38497 ft | 452 kts | 40° |
| 2026-05-04 20:29 | -43.27990 | 170.15188 | 38504 ft | 452 kts | 40° |
| 2026-05-04 20:30 | -43.23979 | 170.19836 | 38504 ft | 453 kts | 40° |
| 2026-05-04 20:30 | -43.19152 | 170.25418 | 38513 ft | 454 kts | 40° |
| 2026-05-04 20:31 | -43.14297 | 170.31021 | 38520 ft | 455 kts | 40° |
| 2026-05-04 20:31 | -43.09476 | 170.36573 | 38522 ft | 456 kts | 40° |
| 2026-05-04 20:32 | -43.04611 | 170.42164 | 38533 ft | 456 kts | 40° |
| 2026-05-04 20:32 | -42.99728 | 170.47763 | 38529 ft | 457 kts | 40° |
| 2026-05-04 20:33 | -42.94876 | 170.53314 | 38526 ft | 456 kts | 40° |
| 2026-05-04 20:33 | -42.90007 | 170.58874 | 38528 ft | 456 kts | 40° |
| 2026-05-04 20:34 | -42.85126 | 170.64434 | 38531 ft | 457 kts | 40° |
| 2026-05-04 20:34 | -42.80278 | 170.69947 | 38533 ft | 456 kts | 40° |
| 2026-05-04 20:35 | -42.75382 | 170.75502 | 38534 ft | 457 kts | 39° |
| 2026-05-04 20:35 | -42.70485 | 170.81046 | 38542 ft | 458 kts | 39° |
| 2026-05-04 20:36 | -42.65604 | 170.86559 | 38535 ft | 457 kts | 39° |
| 2026-05-04 20:36 | -42.60711 | 170.92075 | 38531 ft | 457 kts | 39° |
| 2026-05-04 20:37 | -42.55842 | 170.97553 | 38528 ft | 457 kts | 39° |
| 2026-05-04 20:37 | -42.50942 | 171.03054 | 38531 ft | 456 kts | 39° |
| 2026-05-04 20:38 | -42.46065 | 171.08517 | 38537 ft | 457 kts | 39° |
| 2026-05-04 20:38 | -42.41160 | 171.14000 | 38537 ft | 456 kts | 39° |
| 2026-05-04 20:39 | -42.36262 | 171.19464 | 38541 ft | 456 kts | 39° |
| 2026-05-04 20:39 | -42.31406 | 171.24869 | 38537 ft | 456 kts | 39° |
| 2026-05-04 20:40 | -42.26510 | 171.30309 | 38532 ft | 456 kts | 39° |
| 2026-05-04 20:40 | -42.21604 | 171.35748 | 38555 ft | 455 kts | 39° |
| 2026-05-04 20:41 | -42.16698 | 171.41176 | 38539 ft | 455 kts | 39° |
| 2026-05-04 20:41 | -42.11833 | 171.46547 | 38547 ft | 455 kts | 39° |
| 2026-05-04 20:42 | -42.06922 | 171.51957 | 38538 ft | 455 kts | 39° |
| 2026-05-04 20:42 | -42.02015 | 171.57354 | 38531 ft | 455 kts | 39° |
| 2026-05-04 20:43 | -41.97120 | 171.62773 | 38550 ft | 455 kts | 41° |
| 2026-05-04 20:43 | -41.92469 | 171.68475 | 38547 ft | 455 kts | 43° |
| 2026-05-04 20:44 | -41.87816 | 171.74238 | 38544 ft | 455 kts | 43° |
| 2026-05-04 20:44 | -41.83135 | 171.79950 | 38546 ft | 455 kts | 42° |
| 2026-05-04 20:45 | -41.78466 | 171.85611 | 38543 ft | 455 kts | 42° |
| 2026-05-04 20:45 | -41.73764 | 171.91299 | 38546 ft | 454 kts | 42° |
| 2026-05-04 20:46 | -41.69070 | 171.96966 | 38544 ft | 454 kts | 42° |
| 2026-05-04 20:46 | -41.64395 | 172.02598 | 38549 ft | 454 kts | 42° |
| 2026-05-04 20:47 | -41.59694 | 172.08250 | 38535 ft | 454 kts | 42° |
| 2026-05-04 20:47 | -41.54990 | 172.13895 | 38547 ft | 454 kts | 42° |
| 2026-05-04 20:48 | -41.50309 | 172.19499 | 38540 ft | 454 kts | 42° |
| 2026-05-04 20:48 | -41.45600 | 172.25128 | 38547 ft | 454 kts | 42° |
| 2026-05-04 20:49 | -41.40894 | 172.30740 | 38536 ft | 454 kts | 42° |
| 2026-05-04 20:49 | -41.36210 | 172.36314 | 38548 ft | 454 kts | 42° |
| 2026-05-04 20:50 | -41.31490 | 172.41922 | 38535 ft | 454 kts | 42° |
| 2026-05-04 20:50 | -41.26775 | 172.47511 | 38530 ft | 454 kts | 42° |
| 2026-05-04 20:51 | -41.22083 | 172.53061 | 38538 ft | 453 kts | 42° |
| 2026-05-04 20:51 | -41.17352 | 172.58647 | 38529 ft | 453 kts | 42° |
| 2026-05-04 20:52 | -41.12630 | 172.64211 | 38539 ft | 453 kts | 42° |
| 2026-05-04 20:52 | -41.07942 | 172.69723 | 38535 ft | 453 kts | 42° |
| 2026-05-04 20:53 | -41.03223 | 172.75262 | 38528 ft | 453 kts | 42° |
| 2026-05-04 20:53 | -40.98501 | 172.80793 | 38522 ft | 453 kts | 42° |
| 2026-05-04 20:54 | -40.93775 | 172.86316 | 38518 ft | 452 kts | 42° |
| 2026-05-04 20:54 | -40.89047 | 172.91832 | 38525 ft | 452 kts | 41° |
| 2026-05-04 20:55 | -40.84355 | 172.97296 | 38525 ft | 452 kts | 41° |
| 2026-05-04 20:55 | -40.79630 | 173.02786 | 38510 ft | 452 kts | 41° |
| 2026-05-04 20:56 | -40.74922 | 173.08246 | 38506 ft | 452 kts | 41° |
| 2026-05-04 20:56 | -40.70180 | 173.13734 | 38531 ft | 452 kts | 42° |
| 2026-05-04 20:57 | -40.65454 | 173.19194 | 38515 ft | 456 kts | 42° |
| 2026-05-04 20:57 | -40.60693 | 173.24682 | 38531 ft | 454 kts | 42° |
| 2026-05-04 20:58 | -40.55929 | 173.30164 | 38531 ft | 454 kts | 41° |
| 2026-05-04 20:58 | -40.51167 | 173.35632 | 38520 ft | 454 kts | 41° |
| 2026-05-04 20:59 | -40.46417 | 173.41078 | 38524 ft | 454 kts | 41° |
| 2026-05-04 20:59 | -40.42481 | 173.45585 | 38522 ft | 453 kts | 41° |
| 2026-05-04 21:00 | -40.37704 | 173.51027 | 38524 ft | 453 kts | 41° |
| 2026-05-04 21:00 | -40.32953 | 173.56426 | 38521 ft | 453 kts | 41° |
| 2026-05-04 21:01 | -40.28180 | 173.61844 | 38531 ft | 454 kts | 41° |
| 2026-05-04 21:01 | -40.23400 | 173.67259 | 38538 ft | 454 kts | 41° |
| 2026-05-04 21:02 | -40.18646 | 173.72635 | 38527 ft | 453 kts | 41° |
| 2026-05-04 21:02 | -40.13880 | 173.78013 | 38527 ft | 453 kts | 41° |
| 2026-05-04 21:03 | -40.09089 | 173.83409 | 38527 ft | 453 kts | 41° |
| 2026-05-04 21:03 | -40.04332 | 173.88758 | 38530 ft | 452 kts | 41° |
| 2026-05-04 21:04 | -39.99570 | 173.94100 | 38533 ft | 452 kts | 41° |
| 2026-05-04 21:04 | -39.94786 | 173.99458 | 38535 ft | 452 kts | 41° |
| 2026-05-04 21:05 | -39.90027 | 174.04778 | 38539 ft | 452 kts | 41° |
| 2026-05-04 21:05 | -39.85249 | 174.10109 | 38545 ft | 452 kts | 41° |
| 2026-05-04 21:06 | -39.80495 | 174.15403 | 38539 ft | 451 kts | 41° |
| 2026-05-04 21:06 | -39.75729 | 174.20700 | 38550 ft | 451 kts | 40° |
| 2026-05-04 21:07 | -39.70954 | 174.25999 | 38549 ft | 450 kts | 40° |
| 2026-05-04 21:07 | -39.66254 | 174.31203 | 38548 ft | 450 kts | 40° |
| 2026-05-04 21:08 | -39.61491 | 174.36469 | 38557 ft | 450 kts | 40° |
| 2026-05-04 21:08 | -39.56718 | 174.41736 | 38551 ft | 449 kts | 40° |
| 2026-05-04 21:09 | -39.51872 | 174.46834 | 38550 ft | 448 kts | 33° |
| 2026-05-04 21:09 | -39.46268 | 174.50353 | 38557 ft | 446 kts | 17° |
| 2026-05-04 21:10 | -39.40228 | 174.51888 | 38544 ft | 445 kts | 7° |
| 2026-05-04 21:10 | -39.34083 | 174.53052 | 38546 ft | 446 kts | 8° |
| 2026-05-04 21:11 | -39.27984 | 174.54222 | 38560 ft | 446 kts | 8° |
| 2026-05-04 21:11 | -39.21825 | 174.55399 | 38554 ft | 446 kts | 8° |
| 2026-05-04 21:12 | -39.15674 | 174.56571 | 38560 ft | 446 kts | 8° |
| 2026-05-04 21:12 | -39.09556 | 174.57735 | 38567 ft | 447 kts | 7° |
| 2026-05-04 21:13 | -39.03393 | 174.58907 | 38559 ft | 447 kts | 7° |
| 2026-05-04 21:13 | -38.97223 | 174.60079 | 38371 ft | 448 kts | 7° |
| 2026-05-04 21:14 | -38.94169 | 174.60657 | 37885 ft | 448 kts | 8° |
| 2026-05-04 21:14 | -38.91061 | 174.61246 | 37114 ft | 451 kts | 8° |
| 2026-05-04 21:14 | -38.87927 | 174.61838 | 36227 ft | 456 kts | 8° |
| 2026-05-04 21:14 | -38.84802 | 174.62429 | 35356 ft | 460 kts | 8° |
| 2026-05-04 21:15 | -38.81620 | 174.63029 | 34562 ft | 461 kts | 8° |
| 2026-05-04 21:15 | -38.78428 | 174.63632 | 33699 ft | 461 kts | 8° |
| 2026-05-04 21:15 | -38.76326 | 174.64029 | 33124 ft | 461 kts | 8° |
| 2026-05-04 21:15 | -38.72099 | 174.64826 | 31982 ft | 462 kts | 8° |
| 2026-05-04 21:16 | -38.69946 | 174.65231 | 31484 ft | 460 kts | 8° |
| 2026-05-04 21:16 | -38.66830 | 174.65818 | 30955 ft | 454 kts | 8° |
| 2026-05-04 21:16 | -38.63707 | 174.66406 | 30344 ft | 449 kts | 7° |
| 2026-05-04 21:16 | -38.60637 | 174.66982 | 29785 ft | 442 kts | 7° |
| 2026-05-04 21:17 | -38.57643 | 174.67544 | 29242 ft | 436 kts | 7° |
| 2026-05-04 21:17 | -38.54661 | 174.68104 | 28698 ft | 430 kts | 7° |
| 2026-05-04 21:17 | -38.51745 | 174.68650 | 28167 ft | 424 kts | 7° |
| 2026-05-04 21:17 | -38.48806 | 174.69200 | 27636 ft | 419 kts | 7° |
| 2026-05-04 21:18 | -38.45932 | 174.69738 | 27103 ft | 414 kts | 8° |
| 2026-05-04 21:18 | -38.43097 | 174.70267 | 26584 ft | 409 kts | 8° |
| 2026-05-04 21:18 | -38.40317 | 174.70786 | 26072 ft | 405 kts | 8° |
| 2026-05-04 21:18 | -38.37537 | 174.71304 | 25560 ft | 401 kts | 8° |
| 2026-05-04 21:19 | -38.34776 | 174.71819 | 25042 ft | 398 kts | 8° |
| 2026-05-04 21:19 | -38.32047 | 174.72327 | 24477 ft | 396 kts | 8° |
| 2026-05-04 21:19 | -38.29357 | 174.72827 | 23992 ft | 392 kts | 8° |
| 2026-05-04 21:19 | -38.26670 | 174.73327 | 23472 ft | 387 kts | 8° |
| 2026-05-04 21:20 | -38.24016 | 174.73821 | 22966 ft | 382 kts | 8° |
| 2026-05-04 21:20 | -38.21384 | 174.74311 | 22473 ft | 378 kts | 8° |
| 2026-05-04 21:20 | -38.18788 | 174.74793 | 21974 ft | 374 kts | 8° |
| 2026-05-04 21:20 | -38.16254 | 174.75263 | 21489 ft | 370 kts | 8° |
| 2026-05-04 21:21 | -38.13704 | 174.75735 | 21002 ft | 366 kts | 8° |
| 2026-05-04 21:21 | -38.11221 | 174.76195 | 20525 ft | 363 kts | 8° |
| 2026-05-04 21:21 | -38.08730 | 174.76656 | 20043 ft | 360 kts | 8° |
| 2026-05-04 21:21 | -38.06250 | 174.77115 | 19568 ft | 358 kts | 8° |
| 2026-05-04 21:22 | -38.03827 | 174.77562 | 19089 ft | 355 kts | 8° |
| 2026-05-04 21:22 | -38.01377 | 174.78015 | 18582 ft | 353 kts | 9° |
| 2026-05-04 21:22 | -37.98979 | 174.78458 | 18109 ft | 349 kts | 9° |
| 2026-05-04 21:22 | -37.96580 | 174.78901 | 17635 ft | 346 kts | 9° |
| 2026-05-04 21:23 | -37.94248 | 174.79332 | 17179 ft | 343 kts | 9° |
| 2026-05-04 21:23 | -37.91873 | 174.79770 | 16713 ft | 340 kts | 9° |
| 2026-05-04 21:23 | -37.89523 | 174.80202 | 16249 ft | 338 kts | 9° |
| 2026-05-04 21:23 | -37.87234 | 174.80586 | 15802 ft | 336 kts | 5° |
| 2026-05-04 21:24 | -37.84903 | 174.80672 | 15346 ft | 334 kts | 1° |
| 2026-05-04 21:24 | -37.82582 | 174.80690 | 14891 ft | 332 kts | 1° |
| 2026-05-04 21:24 | -37.80277 | 174.80715 | 14449 ft | 330 kts | 1° |
| 2026-05-04 21:24 | -37.77979 | 174.80744 | 13975 ft | 328 kts | 1° |
| 2026-05-04 21:25 | -37.75703 | 174.80773 | 13531 ft | 325 kts | 1° |
| 2026-05-04 21:25 | -37.73448 | 174.80803 | 12964 ft | 325 kts | 1° |
| 2026-05-04 21:25 | -37.71184 | 174.80833 | 12159 ft | 334 kts | 1° |
| 2026-05-04 21:25 | -37.68856 | 174.80863 | 11677 ft | 332 kts | 1° |
| 2026-05-04 21:26 | -37.66564 | 174.80891 | 11238 ft | 329 kts | 1° |
| 2026-05-04 21:26 | -37.64275 | 174.80919 | 10794 ft | 326 kts | 1° |
| 2026-05-04 21:26 | -37.62015 | 174.80948 | 10423 ft | 322 kts | 1° |
| 2026-05-04 21:26 | -37.59832 | 174.80971 | 10290 ft | 309 kts | 0° |
| 2026-05-04 21:27 | -37.57728 | 174.80735 | 10179 ft | 297 kts | 351° |
| 2026-05-04 21:27 | -37.55733 | 174.80246 | 9988 ft | 287 kts | 350° |
| 2026-05-04 21:27 | -37.53779 | 174.79775 | 9706 ft | 281 kts | 351° |
| 2026-05-04 21:27 | -37.51904 | 174.79330 | 9492 ft | 276 kts | 351° |
| 2026-05-04 21:28 | -37.50010 | 174.78884 | 9143 ft | 274 kts | 351° |
| 2026-05-04 21:28 | -37.48140 | 174.78443 | 8814 ft | 272 kts | 351° |
| 2026-05-04 21:28 | -37.46279 | 174.78003 | 8466 ft | 269 kts | 351° |
| 2026-05-04 21:28 | -37.44463 | 174.77574 | 8129 ft | 267 kts | 351° |
| 2026-05-04 21:29 | -37.42644 | 174.77144 | 7896 ft | 260 kts | 351° |
| 2026-05-04 21:29 | -37.40914 | 174.76733 | 7800 ft | 249 kts | 351° |
| 2026-05-04 21:29 | -37.39198 | 174.76329 | 7391 ft | 251 kts | 351° |
| 2026-05-04 21:29 | -37.37484 | 174.75926 | 7069 ft | 249 kts | 351° |
| 2026-05-04 21:30 | -37.35784 | 174.75527 | 6742 ft | 248 kts | 351° |
| 2026-05-04 21:30 | -37.34092 | 174.75130 | 6426 ft | 245 kts | 351° |
| 2026-05-04 21:30 | -37.32421 | 174.74738 | 6117 ft | 243 kts | 351° |
| 2026-05-04 21:30 | -37.30782 | 174.74354 | 5806 ft | 242 kts | 351° |
| 2026-05-04 21:31 | -37.27471 | 174.73581 | 5181 ft | 241 kts | 351° |
| 2026-05-04 21:31 | -37.25826 | 174.73193 | 4886 ft | 239 kts | 351° |
| 2026-05-04 21:31 | -37.24203 | 174.72813 | 4570 ft | 239 kts | 351° |
| 2026-05-04 21:32 | -37.22578 | 174.72432 | 4365 ft | 233 kts | 351° |
| 2026-05-04 21:32 | -37.21001 | 174.72061 | 4159 ft | 228 kts | 351° |
| 2026-05-04 21:32 | -37.19467 | 174.71691 | 4037 ft | 223 kts | 350° |
| 2026-05-04 21:32 | -37.17919 | 174.71272 | 3889 ft | 233 kts | 349° |
| 2026-05-04 21:33 | -37.16329 | 174.70818 | 3911 ft | 235 kts | 349° |
| 2026-05-04 21:33 | -37.14800 | 174.70379 | 3945 ft | 236 kts | 349° |
| 2026-05-04 21:33 | -37.13202 | 174.69834 | 3695 ft | 239 kts | 336° |
| 2026-05-04 21:33 | -37.11967 | 174.68559 | 3437 ft | 240 kts | 307° |
| 2026-05-04 21:34 | -37.11265 | 174.66601 | 3103 ft | 241 kts | 290° |
| 2026-05-04 21:34 | -37.10773 | 174.64568 | 3066 ft | 244 kts | 288° |
| 2026-05-04 21:34 | -37.10299 | 174.62516 | 3065 ft | 245 kts | 289° |
| 2026-05-04 21:34 | -37.09690 | 174.60578 | 3095 ft | 240 kts | 307° |
| 2026-05-04 21:35 | -37.08475 | 174.59229 | 3031 ft | 235 kts | 338° |
| 2026-05-04 21:35 | -37.06912 | 174.58979 | 2912 ft | 226 kts | 16° |
| 2026-05-04 21:35 | -37.05610 | 174.60034 | 2735 ft | 226 kts | 54° |
| 2026-05-04 21:35 | -37.05133 | 174.61859 | 2500 ft | 226 kts | 83° |
| 2026-05-04 21:36 | -37.05011 | 174.63814 | 2195 ft | 222 kts | 81° |